sensor_id;sensor_type;location;lat;lon;timestamp;P1;durP1;ratioP1;P2;durP2;ratioP2
19171;SDS011;9718;52.200;21.052;2023-02-15T00:02:00;43.03;;;24.37;;
19171;SDS011;9718;52.200;21.052;2023-02-15T00:04:28;40.43;;;21.43;;
19171;SDS011;9718;52.200;21.052;2023-02-15T00:07:13;44.07;;;21.90;;
19171;SDS011;9718;52.200;21.052;2023-02-15T00:09:42;43.23;;;21.80;;
19171;SDS011;9718;52.200;21.052;2023-02-15T00:12:12;41.27;;;22.20;;
19171;SDS011;9718;52.200;21.052;2023-02-15T00:14:39;44.37;;;21.43;;
19171;SDS011;9718;52.200;21.052;2023-02-15T00:17:06;43.53;;;21.17;;
19171;SDS011;9718;52.200;21.052;2023-02-15T00:19:33;38.27;;;21.37;;
19171;SDS011;9718;52.200;21.052;2023-02-15T00:22:00;35.20;;;19.60;;
19171;SDS011;9718;52.200;21.052;2023-02-15T00:24:28;45.33;;;21.70;;
19171;SDS011;9718;52.200;21.052;2023-02-15T00:26:54;42.87;;;21.40;;
19171;SDS011;9718;52.200;21.052;2023-02-15T00:29:22;40.63;;;22.10;;
19171;SDS011;9718;52.200;21.052;2023-02-15T00:31:49;40.60;;;19.60;;
19171;SDS011;9718;52.200;21.052;2023-02-15T00:34:18;39.30;;;21.10;;
19171;SDS011;9718;52.200;21.052;2023-02-15T00:36:48;46.87;;;22.27;;
19171;SDS011;9718;52.200;21.052;2023-02-15T00:39:15;43.50;;;22.03;;
19171;SDS011;9718;52.200;21.052;2023-02-15T00:41:44;53.07;;;22.53;;
19171;SDS011;9718;52.200;21.052;2023-02-15T00:44:12;45.50;;;20.90;;
19171;SDS011;9718;52.200;21.052;2023-02-15T00:46:40;38.37;;;19.90;;
19171;SDS011;9718;52.200;21.052;2023-02-15T00:49:08;43.03;;;19.97;;
19171;SDS011;9718;52.200;21.052;2023-02-15T00:51:35;40.27;;;19.90;;
19171;SDS011;9718;52.200;21.052;2023-02-15T00:54:02;38.40;;;18.70;;
19171;SDS011;9718;52.200;21.052;2023-02-15T00:56:29;39.67;;;20.13;;
19171;SDS011;9718;52.200;21.052;2023-02-15T00:58:56;38.00;;;18.13;;
19171;SDS011;9718;52.200;21.052;2023-02-15T01:01:23;38.83;;;20.10;;
19171;SDS011;9718;52.200;21.052;2023-02-15T01:03:52;42.40;;;20.80;;
19171;SDS011;9718;52.200;21.052;2023-02-15T01:06:19;45.10;;;20.23;;
19171;SDS011;9718;52.200;21.052;2023-02-15T01:08:47;50.93;;;23.07;;
19171;SDS011;9718;52.200;21.052;2023-02-15T01:11:18;40.67;;;20.60;;
19171;SDS011;9718;52.200;21.052;2023-02-15T01:13:50;40.07;;;20.73;;
19171;SDS011;9718;52.200;21.052;2023-02-15T01:16:19;42.30;;;20.73;;
19171;SDS011;9718;52.200;21.052;2023-02-15T01:18:47;42.80;;;20.93;;
19171;SDS011;9718;52.200;21.052;2023-02-15T01:21:15;47.67;;;22.07;;
19171;SDS011;9718;52.200;21.052;2023-02-15T01:23:44;40.80;;;21.10;;
19171;SDS011;9718;52.200;21.052;2023-02-15T01:26:12;36.27;;;19.50;;
19171;SDS011;9718;52.200;21.052;2023-02-15T01:28:40;38.10;;;19.93;;
19171;SDS011;9718;52.200;21.052;2023-02-15T01:31:07;37.67;;;18.80;;
19171;SDS011;9718;52.200;21.052;2023-02-15T01:33:36;44.30;;;20.87;;
19171;SDS011;9718;52.200;21.052;2023-02-15T01:36:04;45.27;;;19.83;;
19171;SDS011;9718;52.200;21.052;2023-02-15T01:38:32;43.97;;;20.17;;
19171;SDS011;9718;52.200;21.052;2023-02-15T01:40:59;40.20;;;19.50;;
19171;SDS011;9718;52.200;21.052;2023-02-15T01:43:46;37.20;;;20.47;;
19171;SDS011;9718;52.200;21.052;2023-02-15T01:46:16;38.37;;;20.27;;
19171;SDS011;9718;52.200;21.052;2023-02-15T01:48:47;38.00;;;19.33;;
19171;SDS011;9718;52.200;21.052;2023-02-15T01:51:17;38.43;;;18.97;;
19171;SDS011;9718;52.200;21.052;2023-02-15T01:53:53;34.77;;;18.03;;
19171;SDS011;9718;52.200;21.052;2023-02-15T01:56:33;47.63;;;20.60;;
19171;SDS011;9718;52.200;21.052;2023-02-15T01:59:04;34.33;;;17.60;;
19171;SDS011;9718;52.200;21.052;2023-02-15T02:01:35;34.30;;;19.23;;
19171;SDS011;9718;52.200;21.052;2023-02-15T02:06:36;35.87;;;17.33;;
19171;SDS011;9718;52.200;21.052;2023-02-15T02:09:05;37.63;;;19.83;;
19171;SDS011;9718;52.200;21.052;2023-02-15T02:11:33;40.33;;;21.00;;
19171;SDS011;9718;52.200;21.052;2023-02-15T02:14:01;44.40;;;20.03;;
19171;SDS011;9718;52.200;21.052;2023-02-15T02:16:40;39.40;;;19.17;;
19171;SDS011;9718;52.200;21.052;2023-02-15T02:24:20;41.30;;;20.97;;
19171;SDS011;9718;52.200;21.052;2023-02-15T02:33:18;40.40;;;19.40;;
19171;SDS011;9718;52.200;21.052;2023-02-15T02:44:16;38.73;;;19.43;;
19171;SDS011;9718;52.200;21.052;2023-02-15T02:46:53;39.30;;;20.23;;
19171;SDS011;9718;52.200;21.052;2023-02-15T02:50:00;40.97;;;19.70;;
19171;SDS011;9718;52.200;21.052;2023-02-15T02:52:46;38.43;;;20.57;;
19171;SDS011;9718;52.200;21.052;2023-02-15T02:55:18;35.83;;;18.13;;
19171;SDS011;9718;52.200;21.052;2023-02-15T03:00:57;38.80;;;20.50;;
19171;SDS011;9718;52.200;21.052;2023-02-15T03:03:36;39.77;;;18.83;;
19171;SDS011;9718;52.200;21.052;2023-02-15T03:06:09;37.87;;;19.37;;
19171;SDS011;9718;52.200;21.052;2023-02-15T03:08:47;32.17;;;16.47;;
19171;SDS011;9718;52.200;21.052;2023-02-15T03:11:17;37.67;;;16.50;;
19171;SDS011;9718;52.200;21.052;2023-02-15T03:13:44;29.43;;;14.67;;
19171;SDS011;9718;52.200;21.052;2023-02-15T03:16:15;35.60;;;17.57;;
19171;SDS011;9718;52.200;21.052;2023-02-15T03:19:16;34.57;;;17.67;;
19171;SDS011;9718;52.200;21.052;2023-02-15T03:21:49;28.73;;;15.77;;
19171;SDS011;9718;52.200;21.052;2023-02-15T03:24:32;39.77;;;19.37;;
19171;SDS011;9718;52.200;21.052;2023-02-15T03:27:01;43.77;;;20.07;;
19171;SDS011;9718;52.200;21.052;2023-02-15T03:29:31;34.47;;;17.30;;
19171;SDS011;9718;52.200;21.052;2023-02-15T03:32:00;34.43;;;16.50;;
19171;SDS011;9718;52.200;21.052;2023-02-15T03:34:32;35.27;;;16.60;;
19171;SDS011;9718;52.200;21.052;2023-02-15T03:37:01;32.57;;;17.23;;
19171;SDS011;9718;52.200;21.052;2023-02-15T03:42:49;31.83;;;16.43;;
19171;SDS011;9718;52.200;21.052;2023-02-15T03:45:25;33.80;;;17.50;;
19171;SDS011;9718;52.200;21.052;2023-02-15T03:47:57;29.77;;;15.13;;
19171;SDS011;9718;52.200;21.052;2023-02-15T03:50:30;30.33;;;16.63;;
19171;SDS011;9718;52.200;21.052;2023-02-15T03:53:18;30.00;;;15.27;;
19171;SDS011;9718;52.200;21.052;2023-02-15T03:55:53;33.40;;;17.73;;
19171;SDS011;9718;52.200;21.052;2023-02-15T03:58:21;33.00;;;17.73;;
19171;SDS011;9718;52.200;21.052;2023-02-15T04:01:22;32.13;;;17.67;;
19171;SDS011;9718;52.200;21.052;2023-02-15T04:04:20;28.57;;;15.67;;
19171;SDS011;9718;52.200;21.052;2023-02-15T04:07:09;33.67;;;15.03;;
19171;SDS011;9718;52.200;21.052;2023-02-15T04:09:36;31.50;;;16.07;;
19171;SDS011;9718;52.200;21.052;2023-02-15T04:12:22;27.33;;;17.10;;
19171;SDS011;9718;52.200;21.052;2023-02-15T04:14:49;29.37;;;16.50;;
19171;SDS011;9718;52.200;21.052;2023-02-15T04:17:36;33.97;;;16.87;;
19171;SDS011;9718;52.200;21.052;2023-02-15T04:20:04;33.07;;;16.70;;
19171;SDS011;9718;52.200;21.052;2023-02-15T04:22:50;29.83;;;17.37;;
19171;SDS011;9718;52.200;21.052;2023-02-15T04:25:36;35.27;;;18.50;;
19171;SDS011;9718;52.200;21.052;2023-02-15T04:28:03;30.83;;;17.53;;
19171;SDS011;9718;52.200;21.052;2023-02-15T04:30:30;31.87;;;16.80;;
19171;SDS011;9718;52.200;21.052;2023-02-15T04:32:57;36.63;;;17.77;;
19171;SDS011;9718;52.200;21.052;2023-02-15T04:35:24;31.03;;;16.00;;
19171;SDS011;9718;52.200;21.052;2023-02-15T04:37:52;38.43;;;17.63;;
19171;SDS011;9718;52.200;21.052;2023-02-15T04:40:19;29.87;;;15.47;;
19171;SDS011;9718;52.200;21.052;2023-02-15T04:42:47;31.50;;;17.40;;
19171;SDS011;9718;52.200;21.052;2023-02-15T04:45:15;35.03;;;18.20;;
19171;SDS011;9718;52.200;21.052;2023-02-15T04:47:43;32.93;;;18.80;;
19171;SDS011;9718;52.200;21.052;2023-02-15T04:50:10;32.23;;;17.00;;
19171;SDS011;9718;52.200;21.052;2023-02-15T04:52:38;31.17;;;17.37;;
19171;SDS011;9718;52.200;21.052;2023-02-15T04:55:05;31.17;;;18.00;;
19171;SDS011;9718;52.200;21.052;2023-02-15T04:57:33;33.87;;;17.90;;
19171;SDS011;9718;52.200;21.052;2023-02-15T05:00:00;33.57;;;18.97;;
19171;SDS011;9718;52.200;21.052;2023-02-15T05:02:27;33.13;;;18.47;;
19171;SDS011;9718;52.200;21.052;2023-02-15T05:04:54;37.70;;;18.50;;
19171;SDS011;9718;52.200;21.052;2023-02-15T05:07:22;31.93;;;17.33;;
19171;SDS011;9718;52.200;21.052;2023-02-15T05:09:49;28.37;;;16.27;;
19171;SDS011;9718;52.200;21.052;2023-02-15T05:12:17;31.33;;;17.17;;
19171;SDS011;9718;52.200;21.052;2023-02-15T05:14:43;36.53;;;18.50;;
19171;SDS011;9718;52.200;21.052;2023-02-15T05:17:11;37.07;;;20.33;;
19171;SDS011;9718;52.200;21.052;2023-02-15T05:19:38;32.53;;;16.33;;
19171;SDS011;9718;52.200;21.052;2023-02-15T05:22:05;35.50;;;18.37;;
19171;SDS011;9718;52.200;21.052;2023-02-15T05:24:32;33.83;;;18.80;;
19171;SDS011;9718;52.200;21.052;2023-02-15T05:27:18;35.90;;;20.17;;
19171;SDS011;9718;52.200;21.052;2023-02-15T05:30:04;34.83;;;18.73;;
19171;SDS011;9718;52.200;21.052;2023-02-15T05:32:32;34.23;;;20.50;;
19171;SDS011;9718;52.200;21.052;2023-02-15T05:34:59;32.67;;;18.60;;
19171;SDS011;9718;52.200;21.052;2023-02-15T05:37:26;35.60;;;17.93;;
19171;SDS011;9718;52.200;21.052;2023-02-15T05:39:53;34.93;;;18.90;;
19171;SDS011;9718;52.200;21.052;2023-02-15T05:42:20;35.80;;;17.43;;
19171;SDS011;9718;52.200;21.052;2023-02-15T05:44:47;39.03;;;18.73;;
19171;SDS011;9718;52.200;21.052;2023-02-15T05:47:14;34.00;;;19.00;;
19171;SDS011;9718;52.200;21.052;2023-02-15T05:49:41;34.53;;;18.03;;
19171;SDS011;9718;52.200;21.052;2023-02-15T05:52:09;35.17;;;19.13;;
19171;SDS011;9718;52.200;21.052;2023-02-15T05:54:38;31.90;;;18.30;;
19171;SDS011;9718;52.200;21.052;2023-02-15T05:57:05;35.40;;;19.20;;
19171;SDS011;9718;52.200;21.052;2023-02-15T05:59:32;37.00;;;20.10;;
19171;SDS011;9718;52.200;21.052;2023-02-15T06:01:59;36.67;;;19.93;;
19171;SDS011;9718;52.200;21.052;2023-02-15T06:04:27;39.80;;;18.53;;
19171;SDS011;9718;52.200;21.052;2023-02-15T06:06:54;34.97;;;17.37;;
19171;SDS011;9718;52.200;21.052;2023-02-15T06:09:21;35.87;;;19.00;;
19171;SDS011;9718;52.200;21.052;2023-02-15T06:11:48;32.13;;;20.03;;
19171;SDS011;9718;52.200;21.052;2023-02-15T06:14:15;36.03;;;20.27;;
19171;SDS011;9718;52.200;21.052;2023-02-15T06:16:43;38.53;;;18.20;;
19171;SDS011;9718;52.200;21.052;2023-02-15T06:19:10;31.57;;;18.17;;
19171;SDS011;9718;52.200;21.052;2023-02-15T06:21:37;36.27;;;18.90;;
19171;SDS011;9718;52.200;21.052;2023-02-15T06:24:04;37.10;;;20.00;;
19171;SDS011;9718;52.200;21.052;2023-02-15T06:26:31;36.90;;;19.83;;
19171;SDS011;9718;52.200;21.052;2023-02-15T06:28:59;35.93;;;20.47;;
19171;SDS011;9718;52.200;21.052;2023-02-15T06:31:26;37.87;;;20.13;;
19171;SDS011;9718;52.200;21.052;2023-02-15T06:33:53;33.43;;;19.27;;
19171;SDS011;9718;52.200;21.052;2023-02-15T06:36:27;33.87;;;19.37;;
19171;SDS011;9718;52.200;21.052;2023-02-15T06:38:55;38.50;;;19.23;;
19171;SDS011;9718;52.200;21.052;2023-02-15T06:41:23;35.80;;;19.83;;
19171;SDS011;9718;52.200;21.052;2023-02-15T06:43:50;36.43;;;19.53;;
19171;SDS011;9718;52.200;21.052;2023-02-15T06:46:18;36.07;;;18.07;;
19171;SDS011;9718;52.200;21.052;2023-02-15T06:48:45;35.13;;;18.90;;
19171;SDS011;9718;52.200;21.052;2023-02-15T06:51:12;35.63;;;18.03;;
19171;SDS011;9718;52.200;21.052;2023-02-15T06:53:39;34.10;;;17.83;;
19171;SDS011;9718;52.200;21.052;2023-02-15T06:56:10;35.90;;;19.53;;
19171;SDS011;9718;52.200;21.052;2023-02-15T06:58:40;39.07;;;19.73;;
19171;SDS011;9718;52.200;21.052;2023-02-15T07:01:09;40.70;;;20.13;;
19171;SDS011;9718;52.200;21.052;2023-02-15T07:03:37;37.87;;;21.27;;
19171;SDS011;9718;52.200;21.052;2023-02-15T07:06:04;42.90;;;21.40;;
19171;SDS011;9718;52.200;21.052;2023-02-15T07:08:35;34.80;;;19.90;;
19171;SDS011;9718;52.200;21.052;2023-02-15T07:11:03;37.07;;;20.10;;
19171;SDS011;9718;52.200;21.052;2023-02-15T07:13:49;31.97;;;17.70;;
19171;SDS011;9718;52.200;21.052;2023-02-15T07:16:19;31.30;;;17.90;;
19171;SDS011;9718;52.200;21.052;2023-02-15T07:18:46;35.60;;;19.23;;
19171;SDS011;9718;52.200;21.052;2023-02-15T07:21:13;40.17;;;18.93;;
19171;SDS011;9718;52.200;21.052;2023-02-15T07:23:40;35.07;;;18.07;;
19171;SDS011;9718;52.200;21.052;2023-02-15T07:26:08;34.87;;;17.57;;
19171;SDS011;9718;52.200;21.052;2023-02-15T07:28:35;33.33;;;18.17;;
19171;SDS011;9718;52.200;21.052;2023-02-15T07:31:03;35.63;;;17.03;;
19171;SDS011;9718;52.200;21.052;2023-02-15T07:33:31;34.07;;;18.30;;
19171;SDS011;9718;52.200;21.052;2023-02-15T07:36:00;38.53;;;18.90;;
19171;SDS011;9718;52.200;21.052;2023-02-15T07:38:33;36.40;;;18.80;;
19171;SDS011;9718;52.200;21.052;2023-02-15T07:41:05;34.87;;;17.20;;
19171;SDS011;9718;52.200;21.052;2023-02-15T07:43:34;28.23;;;16.63;;
19171;SDS011;9718;52.200;21.052;2023-02-15T07:46:03;38.47;;;18.47;;
19171;SDS011;9718;52.200;21.052;2023-02-15T07:48:34;38.50;;;18.60;;
19171;SDS011;9718;52.200;21.052;2023-02-15T07:51:03;31.57;;;18.03;;
19171;SDS011;9718;52.200;21.052;2023-02-15T07:53:31;38.73;;;20.30;;
19171;SDS011;9718;52.200;21.052;2023-02-15T07:56:00;40.43;;;19.33;;
19171;SDS011;9718;52.200;21.052;2023-02-15T07:58:28;37.93;;;20.00;;
19171;SDS011;9718;52.200;21.052;2023-02-15T08:01:14;36.67;;;19.27;;
19171;SDS011;9718;52.200;21.052;2023-02-15T08:03:42;31.77;;;16.80;;
19171;SDS011;9718;52.200;21.052;2023-02-15T08:06:09;33.83;;;16.67;;
19171;SDS011;9718;52.200;21.052;2023-02-15T08:08:39;33.00;;;15.07;;
19171;SDS011;9718;52.200;21.052;2023-02-15T08:13:54;34.67;;;18.03;;
19171;SDS011;9718;52.200;21.052;2023-02-15T08:16:30;37.33;;;17.97;;
19171;SDS011;9718;52.200;21.052;2023-02-15T08:19:27;34.70;;;15.83;;
19171;SDS011;9718;52.200;21.052;2023-02-15T08:21:56;41.33;;;17.57;;
19171;SDS011;9718;52.200;21.052;2023-02-15T08:24:35;35.70;;;17.13;;
19171;SDS011;9718;52.200;21.052;2023-02-15T08:27:08;35.03;;;16.07;;
19171;SDS011;9718;52.200;21.052;2023-02-15T08:29:37;33.60;;;15.77;;
19171;SDS011;9718;52.200;21.052;2023-02-15T08:32:07;29.77;;;14.60;;
19171;SDS011;9718;52.200;21.052;2023-02-15T08:34:36;35.47;;;15.47;;
19171;SDS011;9718;52.200;21.052;2023-02-15T08:37:05;33.43;;;15.63;;
19171;SDS011;9718;52.200;21.052;2023-02-15T08:39:33;30.73;;;16.43;;
19171;SDS011;9718;52.200;21.052;2023-02-15T08:42:00;32.43;;;15.13;;
19171;SDS011;9718;52.200;21.052;2023-02-15T08:44:27;27.37;;;14.00;;
19171;SDS011;9718;52.200;21.052;2023-02-15T08:46:55;31.50;;;13.83;;
19171;SDS011;9718;52.200;21.052;2023-02-15T08:49:28;28.67;;;14.73;;
19171;SDS011;9718;52.200;21.052;2023-02-15T08:51:56;26.50;;;14.30;;
19171;SDS011;9718;52.200;21.052;2023-02-15T08:54:23;29.13;;;14.73;;
19171;SDS011;9718;52.200;21.052;2023-02-15T08:56:50;28.93;;;14.10;;
19171;SDS011;9718;52.200;21.052;2023-02-15T08:59:19;26.60;;;13.17;;
19171;SDS011;9718;52.200;21.052;2023-02-15T09:01:48;26.20;;;14.63;;
19171;SDS011;9718;52.200;21.052;2023-02-15T09:04:17;25.53;;;14.30;;
19171;SDS011;9718;52.200;21.052;2023-02-15T09:06:45;27.67;;;15.20;;
19171;SDS011;9718;52.200;21.052;2023-02-15T09:09:15;30.70;;;17.03;;
19171;SDS011;9718;52.200;21.052;2023-02-15T09:11:44;30.37;;;16.03;;
19171;SDS011;9718;52.200;21.052;2023-02-15T09:14:14;28.70;;;14.60;;
19171;SDS011;9718;52.200;21.052;2023-02-15T09:16:47;29.00;;;14.97;;
19171;SDS011;9718;52.200;21.052;2023-02-15T09:19:16;26.40;;;14.53;;
19171;SDS011;9718;52.200;21.052;2023-02-15T09:21:45;31.97;;;16.27;;
19171;SDS011;9718;52.200;21.052;2023-02-15T09:24:13;30.50;;;16.53;;
19171;SDS011;9718;52.200;21.052;2023-02-15T09:26:42;30.57;;;15.20;;
19171;SDS011;9718;52.200;21.052;2023-02-15T09:29:12;27.67;;;14.10;;
19171;SDS011;9718;52.200;21.052;2023-02-15T09:31:41;22.73;;;13.63;;
19171;SDS011;9718;52.200;21.052;2023-02-15T09:34:13;37.03;;;15.10;;
19171;SDS011;9718;52.200;21.052;2023-02-15T09:36:45;26.93;;;14.07;;
19171;SDS011;9718;52.200;21.052;2023-02-15T09:39:15;24.30;;;13.53;;
19171;SDS011;9718;52.200;21.052;2023-02-15T09:58:06;24.03;;;12.27;;
19171;SDS011;9718;52.200;21.052;2023-02-15T10:00:59;25.40;;;13.23;;
19171;SDS011;9718;52.200;21.052;2023-02-15T10:03:45;25.37;;;14.33;;
19171;SDS011;9718;52.200;21.052;2023-02-15T10:28:26;33.10;;;15.83;;
19171;SDS011;9718;52.200;21.052;2023-02-15T10:33:43;31.33;;;14.90;;
19171;SDS011;9718;52.200;21.052;2023-02-15T10:38:52;32.20;;;15.67;;
19171;SDS011;9718;52.200;21.052;2023-02-15T10:41:27;28.83;;;14.40;;
19171;SDS011;9718;52.200;21.052;2023-02-15T10:44:20;32.77;;;15.40;;
19171;SDS011;9718;52.200;21.052;2023-02-15T10:49:29;25.07;;;13.63;;
19171;SDS011;9718;52.200;21.052;2023-02-15T11:01:02;29.00;;;13.73;;
19171;SDS011;9718;52.200;21.052;2023-02-15T11:03:41;27.73;;;13.77;;
19171;SDS011;9718;52.200;21.052;2023-02-15T11:06:16;28.43;;;15.03;;
19171;SDS011;9718;52.200;21.052;2023-02-15T11:08:47;29.17;;;14.73;;
19171;SDS011;9718;52.200;21.052;2023-02-15T11:11:37;30.47;;;14.47;;
19171;SDS011;9718;52.200;21.052;2023-02-15T11:14:13;32.20;;;15.37;;
19171;SDS011;9718;52.200;21.052;2023-02-15T11:16:57;29.17;;;14.63;;
19171;SDS011;9718;52.200;21.052;2023-02-15T11:19:34;30.57;;;12.90;;
19171;SDS011;9718;52.200;21.052;2023-02-15T11:22:06;33.47;;;13.77;;
19171;SDS011;9718;52.200;21.052;2023-02-15T11:24:39;30.73;;;14.50;;
19171;SDS011;9718;52.200;21.052;2023-02-15T11:29:50;36.27;;;14.43;;
19171;SDS011;9718;52.200;21.052;2023-02-15T11:32:31;33.70;;;14.93;;
19171;SDS011;9718;52.200;21.052;2023-02-15T11:37:40;33.67;;;15.10;;
19171;SDS011;9718;52.200;21.052;2023-02-15T11:40:27;34.83;;;16.20;;
19171;SDS011;9718;52.200;21.052;2023-02-15T11:43:01;37.33;;;16.13;;
19171;SDS011;9718;52.200;21.052;2023-02-15T11:45:33;36.03;;;16.50;;
19171;SDS011;9718;52.200;21.052;2023-02-15T11:48:01;32.73;;;16.57;;
19171;SDS011;9718;52.200;21.052;2023-02-15T11:50:36;38.03;;;16.10;;
19171;SDS011;9718;52.200;21.052;2023-02-15T11:53:06;33.03;;;16.67;;
19171;SDS011;9718;52.200;21.052;2023-02-15T11:55:39;35.57;;;15.77;;
19171;SDS011;9718;52.200;21.052;2023-02-15T12:06:43;35.70;;;16.83;;
19171;SDS011;9718;52.200;21.052;2023-02-15T12:09:24;32.80;;;16.30;;
19171;SDS011;9718;52.200;21.052;2023-02-15T12:11:52;31.33;;;16.60;;
19171;SDS011;9718;52.200;21.052;2023-02-15T12:14:19;31.03;;;16.67;;
19171;SDS011;9718;52.200;21.052;2023-02-15T12:16:51;32.33;;;17.30;;
19171;SDS011;9718;52.200;21.052;2023-02-15T12:19:33;34.70;;;17.77;;
19171;SDS011;9718;52.200;21.052;2023-02-15T12:22:18;31.87;;;16.93;;
19171;SDS011;9718;52.200;21.052;2023-02-15T12:24:47;41.53;;;19.27;;
19171;SDS011;9718;52.200;21.052;2023-02-15T12:27:16;42.37;;;17.10;;
19171;SDS011;9718;52.200;21.052;2023-02-15T12:29:49;36.57;;;18.67;;
19171;SDS011;9718;52.200;21.052;2023-02-15T12:32:25;33.47;;;17.57;;
19171;SDS011;9718;52.200;21.052;2023-02-15T12:35:31;37.63;;;16.30;;
19171;SDS011;9718;52.200;21.052;2023-02-15T12:38:05;38.67;;;16.17;;
19171;SDS011;9718;52.200;21.052;2023-02-15T12:41:23;35.67;;;16.83;;
19171;SDS011;9718;52.200;21.052;2023-02-15T12:44:15;39.20;;;18.40;;
19171;SDS011;9718;52.200;21.052;2023-02-15T12:49:22;39.03;;;18.20;;
19171;SDS011;9718;52.200;21.052;2023-02-15T12:51:51;38.57;;;16.17;;
19171;SDS011;9718;52.200;21.052;2023-02-15T12:56:56;35.20;;;17.33;;
19171;SDS011;9718;52.200;21.052;2023-02-15T12:59:25;37.33;;;17.87;;
19171;SDS011;9718;52.200;21.052;2023-02-15T13:01:52;38.47;;;19.10;;
19171;SDS011;9718;52.200;21.052;2023-02-15T13:04:27;33.93;;;16.63;;
19171;SDS011;9718;52.200;21.052;2023-02-15T13:06:57;39.17;;;17.30;;
19171;SDS011;9718;52.200;21.052;2023-02-15T13:12:18;37.27;;;16.57;;
19171;SDS011;9718;52.200;21.052;2023-02-15T13:14:53;36.27;;;17.03;;
19171;SDS011;9718;52.200;21.052;2023-02-15T13:17:30;33.40;;;16.43;;
19171;SDS011;9718;52.200;21.052;2023-02-15T13:20:02;36.13;;;16.50;;
19171;SDS011;9718;52.200;21.052;2023-02-15T13:22:37;39.07;;;17.77;;
19171;SDS011;9718;52.200;21.052;2023-02-15T13:25:13;40.30;;;17.73;;
19171;SDS011;9718;52.200;21.052;2023-02-15T13:27:45;36.10;;;16.23;;
19171;SDS011;9718;52.200;21.052;2023-02-15T13:30:24;35.77;;;14.97;;
19171;SDS011;9718;52.200;21.052;2023-02-15T13:33:06;31.43;;;16.77;;
19171;SDS011;9718;52.200;21.052;2023-02-15T13:38:53;37.87;;;17.73;;
19171;SDS011;9718;52.200;21.052;2023-02-15T13:52:49;40.83;;;18.77;;
19171;SDS011;9718;52.200;21.052;2023-02-15T13:58:27;37.53;;;17.57;;
19171;SDS011;9718;52.200;21.052;2023-02-15T14:01:19;40.13;;;18.33;;
19171;SDS011;9718;52.200;21.052;2023-02-15T14:09:05;41.67;;;16.60;;
19171;SDS011;9718;52.200;21.052;2023-02-15T14:11:41;36.33;;;16.67;;
19171;SDS011;9718;52.200;21.052;2023-02-15T14:17:24;39.83;;;19.20;;
19171;SDS011;9718;52.200;21.052;2023-02-15T14:26:07;47.77;;;19.63;;
19171;SDS011;9718;52.200;21.052;2023-02-15T14:31:13;52.87;;;21.67;;
19171;SDS011;9718;52.200;21.052;2023-02-15T14:33:52;54.07;;;21.97;;
19171;SDS011;9718;52.200;21.052;2023-02-15T14:36:22;40.37;;;22.13;;
19171;SDS011;9718;52.200;21.052;2023-02-15T14:38:54;43.30;;;21.13;;
19171;SDS011;9718;52.200;21.052;2023-02-15T14:42:30;45.27;;;20.37;;
19171;SDS011;9718;52.200;21.052;2023-02-15T14:45:05;46.17;;;21.80;;
19171;SDS011;9718;52.200;21.052;2023-02-15T14:50:49;38.40;;;18.37;;
19171;SDS011;9718;52.200;21.052;2023-02-15T15:01:30;42.23;;;18.33;;
19171;SDS011;9718;52.200;21.052;2023-02-15T15:04:02;39.93;;;18.77;;
19171;SDS011;9718;52.200;21.052;2023-02-15T15:06:35;41.20;;;19.93;;
19171;SDS011;9718;52.200;21.052;2023-02-15T15:11:48;51.40;;;20.37;;
19171;SDS011;9718;52.200;21.052;2023-02-15T15:16:59;49.37;;;21.20;;
19171;SDS011;9718;52.200;21.052;2023-02-15T15:22:19;42.10;;;17.60;;
19171;SDS011;9718;52.200;21.052;2023-02-15T15:24:49;37.70;;;17.70;;
19171;SDS011;9718;52.200;21.052;2023-02-15T15:43:34;42.17;;;19.80;;
19171;SDS011;9718;52.200;21.052;2023-02-15T15:49:11;45.23;;;23.00;;
19171;SDS011;9718;52.200;21.052;2023-02-15T15:51:42;49.30;;;21.63;;
19171;SDS011;9718;52.200;21.052;2023-02-15T15:54:13;43.00;;;21.20;;
19171;SDS011;9718;52.200;21.052;2023-02-15T15:56:51;46.67;;;22.23;;
19171;SDS011;9718;52.200;21.052;2023-02-15T15:59:31;48.00;;;22.53;;
19171;SDS011;9718;52.200;21.052;2023-02-15T16:02:11;41.10;;;20.07;;
19171;SDS011;9718;52.200;21.052;2023-02-15T16:04:42;46.77;;;21.90;;
19171;SDS011;9718;52.200;21.052;2023-02-15T16:10:03;41.87;;;21.23;;
19171;SDS011;9718;52.200;21.052;2023-02-15T16:12:33;44.77;;;21.47;;
19171;SDS011;9718;52.200;21.052;2023-02-15T16:15:15;42.03;;;21.03;;
19171;SDS011;9718;52.200;21.052;2023-02-15T16:17:44;54.83;;;19.27;;
19171;SDS011;9718;52.200;21.052;2023-02-15T16:20:23;42.83;;;20.00;;
19171;SDS011;9718;52.200;21.052;2023-02-15T16:23:04;46.37;;;19.73;;
19171;SDS011;9718;52.200;21.052;2023-02-15T16:28:17;41.43;;;20.40;;
19171;SDS011;9718;52.200;21.052;2023-02-15T16:30:54;40.43;;;19.40;;
19171;SDS011;9718;52.200;21.052;2023-02-15T16:33:37;39.67;;;22.13;;
19171;SDS011;9718;52.200;21.052;2023-02-15T16:36:05;40.73;;;19.87;;
19171;SDS011;9718;52.200;21.052;2023-02-15T16:41:13;40.80;;;19.30;;
19171;SDS011;9718;52.200;21.052;2023-02-15T16:43:47;44.20;;;21.37;;
19171;SDS011;9718;52.200;21.052;2023-02-15T16:46:24;43.47;;;22.67;;
19171;SDS011;9718;52.200;21.052;2023-02-15T16:48:55;44.53;;;20.90;;
19171;SDS011;9718;52.200;21.052;2023-02-15T16:51:28;34.30;;;18.97;;
19171;SDS011;9718;52.200;21.052;2023-02-15T16:54:00;40.03;;;20.17;;
19171;SDS011;9718;52.200;21.052;2023-02-15T16:56:33;44.17;;;20.20;;
19171;SDS011;9718;52.200;21.052;2023-02-15T16:59:01;34.90;;;19.77;;
19171;SDS011;9718;52.200;21.052;2023-02-15T17:01:30;36.73;;;19.10;;
19171;SDS011;9718;52.200;21.052;2023-02-15T17:06:38;42.20;;;22.10;;
19171;SDS011;9718;52.200;21.052;2023-02-15T17:09:11;40.57;;;21.27;;
19171;SDS011;9718;52.200;21.052;2023-02-15T17:11:44;38.27;;;20.00;;
19171;SDS011;9718;52.200;21.052;2023-02-15T17:14:13;44.50;;;20.50;;
19171;SDS011;9718;52.200;21.052;2023-02-15T17:16:48;38.13;;;20.27;;
19171;SDS011;9718;52.200;21.052;2023-02-15T17:19:51;43.80;;;22.27;;
19171;SDS011;9718;52.200;21.052;2023-02-15T17:22:24;46.50;;;22.10;;
19171;SDS011;9718;52.200;21.052;2023-02-15T17:24:58;42.27;;;19.70;;
19171;SDS011;9718;52.200;21.052;2023-02-15T17:27:28;40.57;;;20.53;;
19171;SDS011;9718;52.200;21.052;2023-02-15T17:30:01;38.93;;;20.70;;
19171;SDS011;9718;52.200;21.052;2023-02-15T17:32:39;41.10;;;21.67;;
19171;SDS011;9718;52.200;21.052;2023-02-15T17:35:27;39.73;;;21.10;;
19171;SDS011;9718;52.200;21.052;2023-02-15T17:40:46;38.80;;;20.53;;
19171;SDS011;9718;52.200;21.052;2023-02-15T17:43:13;41.67;;;23.57;;
19171;SDS011;9718;52.200;21.052;2023-02-15T17:45:47;42.87;;;22.10;;
19171;SDS011;9718;52.200;21.052;2023-02-15T17:48:22;38.47;;;21.70;;
19171;SDS011;9718;52.200;21.052;2023-02-15T17:50:57;43.03;;;23.23;;
19171;SDS011;9718;52.200;21.052;2023-02-15T17:53:27;42.73;;;24.13;;
19171;SDS011;9718;52.200;21.052;2023-02-15T17:55:54;39.80;;;21.53;;
19171;SDS011;9718;52.200;21.052;2023-02-15T17:58:21;51.63;;;25.50;;
19171;SDS011;9718;52.200;21.052;2023-02-15T18:00:50;45.33;;;23.73;;
19171;SDS011;9718;52.200;21.052;2023-02-15T18:06:25;45.00;;;24.10;;
19171;SDS011;9718;52.200;21.052;2023-02-15T18:09:12;48.23;;;23.53;;
19171;SDS011;9718;52.200;21.052;2023-02-15T18:12:00;43.27;;;22.20;;